createdAt,value
2023-01-04T00:04:43.149Z,6.6
2023-01-04T00:09:49.523Z,6.6
2023-01-04T00:14:45.879Z,6.7
2023-01-04T00:20:02.314Z,6.7
2023-01-04T00:25:08.678Z,6.8
2023-01-04T00:30:15.167Z,6.8
2023-01-04T00:35:55.675Z,6.9
2023-01-04T00:41:03.017Z,6.9
2023-01-04T00:46:09.562Z,7.0
2023-01-04T00:51:15.970Z,7.0
2023-01-04T00:56:22.314Z,7.1
2023-01-04T01:01:28.777Z,7.1
2023-01-04T01:07:16.183Z,7.2
2023-01-04T01:22:36.348Z,7.3
2023-01-04T01:27:42.748Z,7.3
2023-01-04T01:32:39.149Z,7.3
2023-01-04T01:37:59.221Z,7.3
2023-01-04T01:44:37.691Z,7.3
2023-01-04T01:48:11.890Z,7.3
2023-01-04T01:53:18.292Z,7.4
2023-01-04T01:58:52.744Z,7.4
2023-01-04T02:03:55.346Z,7.4
2023-01-04T02:09:39.783Z,7.4
2023-01-04T02:14:23.375Z,7.4
2023-01-04T02:19:55.382Z,7.4
2023-01-04T02:24:37.843Z,7.4
2023-01-04T02:30:04.307Z,7.4
2023-01-04T02:39:57.148Z,7.4
2023-01-04T02:50:10.067Z,7.4
2023-01-04T02:55:16.414Z,7.4
2023-01-04T03:00:22.800Z,7.4
2023-01-04T03:05:29.209Z,7.4
2023-01-04T03:10:35.596Z,7.4
2023-01-04T03:15:45.590Z,7.4
2023-01-04T03:20:51.976Z,7.4
2023-01-04T03:25:58.539Z,7.5
2023-01-04T03:30:54.980Z,7.5
2023-01-04T03:36:10.322Z,7.5
2023-01-04T03:41:17.706Z,7.6
2023-01-04T03:46:47.208Z,7.6
2023-01-04T03:51:30.551Z,7.6
2023-01-04T03:56:36.968Z,7.6
2023-01-04T04:01:43.536Z,7.7
2023-01-04T04:06:39.866Z,7.7
2023-01-04T04:11:56.149Z,7.7
2023-01-04T04:17:02.648Z,7.8
2023-01-04T04:27:15.338Z,7.9
2023-01-04T04:32:21.703Z,7.9
2023-01-04T04:37:28.116Z,8.0
2023-01-04T04:42:34.588Z,8.0
2023-01-04T04:47:40.950Z,8.0
2023-01-04T04:53:07.391Z,8.1
2023-01-04T04:57:53.711Z,8.1
2023-01-04T05:03:24.230Z,8.2
2023-01-04T05:08:26.664Z,8.2
2023-01-04T05:18:19.489Z,8.3
2023-01-04T05:23:25.875Z,8.4
2023-01-04T05:28:32.283Z,8.4
2023-01-04T05:33:28.613Z,8.4
2023-01-04T05:38:45.048Z,8.5
2023-01-04T05:44:15.495Z,8.6
2023-01-04T05:48:57.811Z,8.6
2023-01-04T05:54:04.191Z,8.6
2023-01-04T05:59:00.565Z,8.7
2023-01-04T06:04:17.060Z,8.7
2023-01-04T06:09:23.548Z,8.8
2023-01-04T06:19:38.950Z,8.8
2023-01-04T06:24:46.304Z,8.9
2023-01-04T06:29:42.689Z,8.9
2023-01-04T06:34:59.092Z,8.9
2023-01-04T06:40:05.456Z,9.0
2023-01-04T06:45:01.824Z,9.0
2023-01-04T06:50:42.870Z,9.0
2023-01-04T06:55:25.218Z,9.1
2023-01-04T07:00:55.784Z,9.1
2023-01-04T07:05:38.068Z,9.2
2023-01-04T07:11:08.518Z,9.2
2023-01-04T07:15:50.886Z,9.2
2023-01-04T07:20:57.205Z,9.3
2023-01-04T07:26:03.564Z,9.3
2023-01-04T07:31:10.045Z,9.3
2023-01-04T07:36:15.314Z,9.4
2023-01-04T07:41:22.764Z,9.4
2023-01-04T07:46:29.251Z,9.4
2023-01-04T07:51:35.552Z,9.4
2023-01-04T07:56:41.971Z,9.5
2023-01-04T08:01:48.550Z,9.5
2023-01-04T08:06:54.751Z,9.5
2023-01-04T08:12:01.143Z,9.6
2023-01-04T08:16:57.680Z,9.6
2023-01-04T08:22:14.043Z,9.7
2023-01-04T08:27:20.414Z,9.7
2023-01-04T08:32:26.801Z,9.7
2023-01-04T08:37:33.153Z,9.8
2023-01-04T08:42:39.584Z,9.8
2023-01-04T08:47:46.107Z,9.8
2023-01-04T08:52:52.463Z,9.8
2023-01-04T08:57:58.844Z,9.9
2023-01-04T09:03:05.623Z,9.9
2023-01-04T09:08:01.597Z,9.9
2023-01-04T09:13:07.945Z,10.0
2023-01-04T09:18:48.402Z,10.0
2023-01-04T09:23:30.740Z,10.0
2023-01-04T09:28:37.244Z,10.0
2023-01-04T09:34:18.888Z,10.0
2023-01-04T09:38:48.934Z,10.1
2023-01-04T09:44:20.333Z,10.1
2023-01-04T09:49:22.726Z,10.1
2023-01-04T09:54:09.048Z,10.1
2023-01-04T09:59:15.497Z,10.2
2023-01-04T10:04:11.948Z,10.2
2023-01-04T10:09:28.404Z,10.3
2023-01-04T10:24:47.662Z,10.4
2023-01-04T10:29:54.061Z,10.4
2023-01-04T10:35:00.398Z,10.4
2023-01-04T10:39:56.799Z,10.5
2023-01-04T10:45:14.196Z,10.5
2023-01-04T10:50:20.572Z,10.5
2023-01-04T10:55:26.976Z,10.6
2023-01-04T11:00:57.430Z,10.6
2023-01-04T11:05:39.750Z,10.7
2023-01-04T11:11:06.269Z,10.7
2023-01-04T11:15:52.919Z,10.8
2023-01-04T11:20:59.111Z,10.8
2023-01-04T11:26:05.485Z,10.8
2023-01-04T11:31:01.918Z,10.8
2023-01-04T11:36:42.333Z,10.9
2023-01-04T11:41:24.677Z,10.9
2023-01-04T11:46:55.208Z,10.9
2023-01-04T11:51:37.516Z,11.0
2023-01-04T11:56:43.901Z,11.0
2023-01-04T12:01:51.491Z,11.0
2023-01-04T12:07:21.941Z,11.0
2023-01-04T12:12:04.193Z,11.0
2023-01-04T12:17:14.217Z,11.1
2023-01-04T12:22:43.733Z,11.1
2023-01-04T12:27:27.019Z,11.1
2023-01-04T12:32:33.403Z,11.1
2023-01-04T12:37:39.785Z,11.2
2023-01-04T12:47:52.598Z,11.2
2023-01-04T12:53:19.929Z,11.2
2023-01-04T12:58:04.365Z,11.2
2023-01-04T13:03:12.085Z,11.2
2023-01-04T13:08:22.218Z,11.2
2023-01-04T13:13:24.646Z,11.3
2023-01-04T13:18:55.148Z,11.3
2023-01-04T13:23:37.559Z,11.3
2023-01-04T13:28:33.960Z,11.3
2023-01-04T13:33:50.375Z,11.3
2023-01-04T13:38:56.809Z,11.3
2023-01-04T13:44:03.371Z,11.3
2023-01-04T13:49:09.741Z,11.4
2023-01-04T13:54:06.117Z,11.4
2023-01-04T13:59:26.122Z,11.4
2023-01-04T14:04:22.532Z,11.4
2023-01-04T14:09:38.969Z,11.4
2023-01-04T14:20:14.816Z,11.4
2023-01-04T14:30:06.159Z,11.4
2023-01-04T14:35:14.124Z,11.4
2023-01-04T14:40:20.465Z,11.4
2023-01-04T14:45:28.591Z,11.4
2023-01-04T14:50:33.854Z,11.4
2023-01-04T14:55:41.238Z,11.4
2023-01-04T15:00:47.580Z,11.4
2023-01-04T15:05:54.187Z,11.5
2023-01-04T15:11:00.618Z,11.4
2023-01-04T15:16:08.642Z,11.5
2023-01-04T15:21:14.946Z,11.5
2023-01-04T15:27:17.665Z,11.4
2023-01-04T15:32:05.087Z,11.4
2023-01-04T15:37:11.975Z,11.5
2023-01-04T15:42:18.388Z,11.5
2023-01-04T15:50:33.180Z,11.5
2023-01-04T15:52:55.154Z,11.4
2023-01-04T15:58:49.886Z,11.4
2023-01-04T16:02:44.351Z,11.4
2023-01-04T16:08:14.703Z,11.4
2023-01-04T16:13:21.150Z,11.4
2023-01-04T16:18:02.376Z,11.4
2023-01-04T16:23:33.875Z,11.4
2023-01-04T16:33:22.710Z,11.4
2023-01-04T16:38:29.104Z,11.3
2023-01-04T16:43:35.722Z,11.3
2023-01-04T16:49:07.864Z,11.3
2023-01-04T16:53:50.022Z,11.3
2023-01-04T16:58:55.968Z,11.3
2023-01-04T17:04:17.620Z,11.3
2023-01-04T17:09:09.940Z,11.3
2023-01-04T17:14:17.501Z,11.3
2023-01-04T17:19:23.812Z,11.3
2023-01-04T17:24:30.188Z,11.3
2023-01-04T17:29:36.582Z,11.3
2023-01-04T17:40:19.163Z,11.3
2023-01-04T17:45:22.404Z,11.3
2023-01-04T17:49:54.561Z,11.3
2023-01-04T17:55:10.961Z,11.3
2023-01-04T18:00:17.349Z,11.3
2023-01-04T18:05:23.771Z,11.3
2023-01-04T18:10:41.364Z,11.2
2023-01-04T18:15:44.001Z,11.2
2023-01-04T18:20:46.352Z,11.2
2023-01-04T18:25:49.356Z,11.2
2023-01-04T18:36:02.149Z,11.2
2023-01-04T18:41:08.568Z,11.2
2023-01-04T18:46:15.107Z,11.2
2023-01-04T18:51:21.567Z,11.2
2023-01-04T18:56:27.970Z,11.2
2023-01-04T19:01:34.501Z,11.2
2023-01-04T19:06:41.068Z,11.2
2023-01-04T19:11:47.282Z,11.2
2023-01-04T19:16:53.940Z,11.2
2023-01-04T19:27:06.616Z,11.1
2023-01-04T19:32:13.036Z,11.1
2023-01-04T19:37:19.544Z,11.1
2023-01-04T19:42:45.935Z,11.1
2023-01-04T19:47:57.443Z,11.1
2023-01-04T19:52:39.812Z,11.1
2023-01-04T19:57:46.180Z,11.0
2023-01-04T20:03:17.795Z,11.0
2023-01-04T20:09:12.322Z,11.0
2023-01-04T20:13:26.558Z,10.9
2023-01-04T20:18:14.302Z,10.9
2023-01-04T20:23:19.353Z,10.9
2023-01-04T20:29:25.849Z,10.9
2023-01-04T20:33:52.163Z,10.9
2023-01-04T20:39:02.590Z,10.8
2023-01-04T20:46:33.482Z,10.8
2023-01-04T20:49:35.405Z,10.8
2023-01-04T20:59:22.173Z,10.8
2023-01-04T20:59:24.157Z,10.8
2023-01-04T21:09:16.001Z,10.8
2023-01-04T21:10:10.043Z,10.8
2023-01-04T21:14:23.350Z,10.8
2023-01-04T21:19:53.908Z,10.7
2023-01-04T21:24:36.295Z,10.7
2023-01-04T21:30:06.700Z,10.7
2023-01-04T21:35:09.073Z,10.7
2023-01-04T21:39:55.522Z,10.7
2023-01-04T21:45:25.887Z,10.7
2023-01-04T21:50:28.262Z,10.7
2023-01-04T21:55:35.352Z,10.7
2023-01-04T22:00:11.257Z,10.7
2023-01-04T22:06:11.734Z,10.7
2023-01-04T22:10:34.044Z,10.6
2023-01-04T22:16:40.706Z,10.6
2023-01-04T22:21:11.234Z,10.6
2023-01-04T22:25:53.585Z,10.6
2023-01-04T22:31:20.193Z,10.5
2023-01-04T22:36:15.411Z,10.5
2023-01-04T22:41:12.875Z,10.5
2023-01-04T22:46:19.303Z,10.5
2023-01-04T22:51:25.664Z,10.4
2023-01-04T22:56:53.190Z,10.4
2023-01-04T23:01:39.799Z,10.4
2023-01-04T23:07:46.279Z,10.4
2023-01-04T23:11:52.516Z,10.3
2023-01-04T23:17:18.926Z,10.3
2023-01-04T23:22:05.286Z,10.3
2023-01-04T23:27:11.688Z,10.2
2023-01-04T23:32:18.147Z,10.2
2023-01-04T23:37:24.646Z,10.2
2023-01-04T23:42:31.123Z,10.2
2023-01-04T23:47:37.405Z,10.1
2023-01-04T23:52:43.805Z,10.1
2023-01-04T23:58:10.258Z,10.1
